sensor_id;sensor_type;location;lat;lon;timestamp;P1;durP1;ratioP1;P2;durP2;ratioP2
13238;SDS011;6686;51.292;4.166;2023-04-09T00:01:57;19.00;;;16.03;;
13238;SDS011;6686;51.292;4.166;2023-04-09T00:04:42;18.63;;;14.80;;
13238;SDS011;6686;51.292;4.166;2023-04-09T00:07:29;19.93;;;15.83;;
13238;SDS011;6686;51.292;4.166;2023-04-09T00:10:14;19.47;;;16.00;;
13238;SDS011;6686;51.292;4.166;2023-04-09T00:13:00;19.20;;;15.50;;
13238;SDS011;6686;51.292;4.166;2023-04-09T00:15:46;19.77;;;16.10;;
13238;SDS011;6686;51.292;4.166;2023-04-09T00:18:33;21.87;;;19.55;;
13238;SDS011;6686;51.292;4.166;2023-04-09T00:21:19;18.30;;;16.40;;
13238;SDS011;6686;51.292;4.166;2023-04-09T00:24:05;19.83;;;15.47;;
13238;SDS011;6686;51.292;4.166;2023-04-09T00:26:50;19.90;;;16.37;;
13238;SDS011;6686;51.292;4.166;2023-04-09T00:29:36;18.60;;;15.23;;
13238;SDS011;6686;51.292;4.166;2023-04-09T00:32:22;17.73;;;15.80;;
13238;SDS011;6686;51.292;4.166;2023-04-09T00:35:08;18.60;;;14.73;;
13238;SDS011;6686;51.292;4.166;2023-04-09T00:37:53;22.47;;;16.53;;
13238;SDS011;6686;51.292;4.166;2023-04-09T00:40:39;16.97;;;14.90;;
13238;SDS011;6686;51.292;4.166;2023-04-09T00:43:25;20.13;;;15.47;;
13238;SDS011;6686;51.292;4.166;2023-04-09T00:46:11;18.93;;;15.17;;
13238;SDS011;6686;51.292;4.166;2023-04-09T00:48:57;19.77;;;15.37;;
13238;SDS011;6686;51.292;4.166;2023-04-09T00:51:43;18.40;;;16.00;;
13238;SDS011;6686;51.292;4.166;2023-04-09T00:54:28;19.37;;;15.23;;
13238;SDS011;6686;51.292;4.166;2023-04-09T00:57:14;22.47;;;17.63;;
13238;SDS011;6686;51.292;4.166;2023-04-09T01:00:00;19.83;;;15.97;;
13238;SDS011;6686;51.292;4.166;2023-04-09T01:02:46;17.90;;;15.37;;
13238;SDS011;6686;51.292;4.166;2023-04-09T01:12:00;19.70;;;16.23;;
13238;SDS011;6686;51.292;4.166;2023-04-09T01:17:49;20.63;;;15.93;;
13238;SDS011;6686;51.292;4.166;2023-04-09T01:20:42;20.93;;;17.33;;
13238;SDS011;6686;51.292;4.166;2023-04-09T01:23:42;23.93;;;19.23;;
13238;SDS011;6686;51.292;4.166;2023-04-09T01:26:40;34.60;;;26.92;;
13238;SDS011;6686;51.292;4.166;2023-04-09T01:29:20;31.20;;;22.70;;
13238;SDS011;6686;51.292;4.166;2023-04-09T01:32:06;35.70;;;23.53;;
13238;SDS011;6686;51.292;4.166;2023-04-09T01:34:52;33.03;;;23.33;;
13238;SDS011;6686;51.292;4.166;2023-04-09T01:37:37;38.50;;;29.02;;
13238;SDS011;6686;51.292;4.166;2023-04-09T01:40:24;38.03;;;27.57;;
13238;SDS011;6686;51.292;4.166;2023-04-09T01:43:09;37.70;;;26.30;;
13238;SDS011;6686;51.292;4.166;2023-04-09T01:45:56;41.83;;;31.37;;
13238;SDS011;6686;51.292;4.166;2023-04-09T01:48:42;37.57;;;28.33;;
13238;SDS011;6686;51.292;4.166;2023-04-09T01:51:28;36.40;;;25.57;;
13238;SDS011;6686;51.292;4.166;2023-04-09T01:54:14;37.95;;;29.30;;
13238;SDS011;6686;51.292;4.166;2023-04-09T01:56:59;36.87;;;26.13;;
13238;SDS011;6686;51.292;4.166;2023-04-09T01:59:45;35.60;;;25.20;;
13238;SDS011;6686;51.292;4.166;2023-04-09T02:02:35;41.03;;;25.17;;
13238;SDS011;6686;51.292;4.166;2023-04-09T02:05:17;36.10;;;25.10;;
13238;SDS011;6686;51.292;4.166;2023-04-09T02:08:03;37.03;;;27.37;;
13238;SDS011;6686;51.292;4.166;2023-04-09T02:10:50;37.83;;;25.77;;
13238;SDS011;6686;51.292;4.166;2023-04-09T02:13:38;37.17;;;25.53;;
13238;SDS011;6686;51.292;4.166;2023-04-09T02:16:23;34.47;;;24.40;;
13238;SDS011;6686;51.292;4.166;2023-04-09T02:19:09;38.67;;;26.53;;
13238;SDS011;6686;51.292;4.166;2023-04-09T02:21:55;36.77;;;25.13;;
13238;SDS011;6686;51.292;4.166;2023-04-09T02:24:41;38.13;;;26.20;;
13238;SDS011;6686;51.292;4.166;2023-04-09T02:27:28;36.53;;;25.33;;
13238;SDS011;6686;51.292;4.166;2023-04-09T02:30:13;34.70;;;25.07;;
13238;SDS011;6686;51.292;4.166;2023-04-09T02:33:00;35.23;;;25.33;;
13238;SDS011;6686;51.292;4.166;2023-04-09T02:35:45;42.25;;;31.95;;
13238;SDS011;6686;51.292;4.166;2023-04-09T02:38:31;41.37;;;28.23;;
13238;SDS011;6686;51.292;4.166;2023-04-09T02:41:17;38.00;;;26.30;;
13238;SDS011;6686;51.292;4.166;2023-04-09T02:44:03;38.37;;;25.97;;
13238;SDS011;6686;51.292;4.166;2023-04-09T02:46:49;39.07;;;26.43;;
13238;SDS011;6686;51.292;4.166;2023-04-09T02:49:35;38.10;;;26.90;;
13238;SDS011;6686;51.292;4.166;2023-04-09T02:52:20;33.87;;;24.37;;
13238;SDS011;6686;51.292;4.166;2023-04-09T02:55:06;33.43;;;25.10;;
13238;SDS011;6686;51.292;4.166;2023-04-09T02:57:52;37.20;;;26.00;;
13238;SDS011;6686;51.292;4.166;2023-04-09T03:00:38;34.80;;;24.70;;
13238;SDS011;6686;51.292;4.166;2023-04-09T03:03:24;36.63;;;24.70;;
13238;SDS011;6686;51.292;4.166;2023-04-09T03:06:10;37.27;;;25.87;;
13238;SDS011;6686;51.292;4.166;2023-04-09T03:08:57;33.20;;;24.23;;
13238;SDS011;6686;51.292;4.166;2023-04-09T03:11:43;37.23;;;25.07;;
13238;SDS011;6686;51.292;4.166;2023-04-09T03:14:29;35.47;;;25.73;;
13238;SDS011;6686;51.292;4.166;2023-04-09T03:17:15;38.20;;;25.20;;
13238;SDS011;6686;51.292;4.166;2023-04-09T03:20:01;37.40;;;24.53;;
13238;SDS011;6686;51.292;4.166;2023-04-09T03:22:47;38.67;;;30.47;;
13238;SDS011;6686;51.292;4.166;2023-04-09T03:25:32;40.13;;;28.47;;
13238;SDS011;6686;51.292;4.166;2023-04-09T03:28:18;45.83;;;27.77;;
13238;SDS011;6686;51.292;4.166;2023-04-09T03:31:04;40.80;;;27.97;;
13238;SDS011;6686;51.292;4.166;2023-04-09T03:33:50;40.47;;;28.13;;
13238;SDS011;6686;51.292;4.166;2023-04-09T03:36:36;40.80;;;32.33;;
13238;SDS011;6686;51.292;4.166;2023-04-09T03:39:22;41.27;;;29.57;;
13238;SDS011;6686;51.292;4.166;2023-04-09T03:42:08;40.90;;;28.60;;
13238;SDS011;6686;51.292;4.166;2023-04-09T03:44:54;42.40;;;33.38;;
13238;SDS011;6686;51.292;4.166;2023-04-09T03:47:40;41.90;;;28.67;;
13238;SDS011;6686;51.292;4.166;2023-04-09T03:50:26;38.33;;;26.07;;
13238;SDS011;6686;51.292;4.166;2023-04-09T03:53:12;36.47;;;25.67;;
13238;SDS011;6686;51.292;4.166;2023-04-09T03:55:58;40.27;;;27.23;;
13238;SDS011;6686;51.292;4.166;2023-04-09T03:58:44;41.17;;;27.07;;
13238;SDS011;6686;51.292;4.166;2023-04-09T04:01:30;41.83;;;28.17;;
13238;SDS011;6686;51.292;4.166;2023-04-09T04:04:16;38.10;;;26.17;;
13238;SDS011;6686;51.292;4.166;2023-04-09T04:07:02;39.70;;;27.80;;
13238;SDS011;6686;51.292;4.166;2023-04-09T04:09:47;39.13;;;27.63;;
13238;SDS011;6686;51.292;4.166;2023-04-09T04:12:34;42.17;;;28.53;;
13238;SDS011;6686;51.292;4.166;2023-04-09T04:15:19;44.53;;;27.77;;
13238;SDS011;6686;51.292;4.166;2023-04-09T04:18:05;41.50;;;29.40;;
13238;SDS011;6686;51.292;4.166;2023-04-09T04:20:51;35.43;;;25.37;;
13238;SDS011;6686;51.292;4.166;2023-04-09T04:23:37;40.83;;;27.10;;
13238;SDS011;6686;51.292;4.166;2023-04-09T04:26:23;42.17;;;28.50;;
13238;SDS011;6686;51.292;4.166;2023-04-09T04:29:09;44.80;;;29.00;;
13238;SDS011;6686;51.292;4.166;2023-04-09T04:31:55;43.57;;;28.83;;
13238;SDS011;6686;51.292;4.166;2023-04-09T04:34:41;40.00;;;27.60;;
13238;SDS011;6686;51.292;4.166;2023-04-09T04:37:27;39.47;;;29.20;;
13238;SDS011;6686;51.292;4.166;2023-04-09T04:40:12;42.57;;;29.63;;
13238;SDS011;6686;51.292;4.166;2023-04-09T04:42:58;47.20;;;29.10;;
13238;SDS011;6686;51.292;4.166;2023-04-09T04:45:44;45.73;;;31.07;;
13238;SDS011;6686;51.292;4.166;2023-04-09T04:48:30;44.93;;;30.37;;
13238;SDS011;6686;51.292;4.166;2023-04-09T04:51:16;43.23;;;30.10;;
13238;SDS011;6686;51.292;4.166;2023-04-09T04:54:01;37.80;;;25.93;;
13238;SDS011;6686;51.292;4.166;2023-04-09T04:56:47;35.60;;;23.50;;
13238;SDS011;6686;51.292;4.166;2023-04-09T04:59:35;34.67;;;23.50;;
13238;SDS011;6686;51.292;4.166;2023-04-09T05:02:19;42.43;;;29.03;;
13238;SDS011;6686;51.292;4.166;2023-04-09T05:05:05;40.03;;;28.03;;
13238;SDS011;6686;51.292;4.166;2023-04-09T05:07:50;40.77;;;28.67;;
13238;SDS011;6686;51.292;4.166;2023-04-09T05:10:39;43.03;;;33.30;;
13238;SDS011;6686;51.292;4.166;2023-04-09T05:13:22;48.08;;;37.20;;
13238;SDS011;6686;51.292;4.166;2023-04-09T05:16:14;46.67;;;31.87;;
13238;SDS011;6686;51.292;4.166;2023-04-09T05:18:55;43.38;;;34.25;;
13238;SDS011;6686;51.292;4.166;2023-04-09T05:21:41;39.10;;;28.47;;
13238;SDS011;6686;51.292;4.166;2023-04-09T05:24:27;42.83;;;30.10;;
13238;SDS011;6686;51.292;4.166;2023-04-09T05:27:13;40.83;;;28.93;;
13238;SDS011;6686;51.292;4.166;2023-04-09T05:29:58;39.83;;;27.27;;
13238;SDS011;6686;51.292;4.166;2023-04-09T05:32:44;40.50;;;27.70;;
13238;SDS011;6686;51.292;4.166;2023-04-09T05:35:30;41.53;;;29.00;;
13238;SDS011;6686;51.292;4.166;2023-04-09T05:38:16;37.80;;;27.13;;
13238;SDS011;6686;51.292;4.166;2023-04-09T05:41:02;38.10;;;27.23;;
13238;SDS011;6686;51.292;4.166;2023-04-09T05:43:48;42.70;;;27.83;;
13238;SDS011;6686;51.292;4.166;2023-04-09T05:46:34;42.87;;;29.83;;
13238;SDS011;6686;51.292;4.166;2023-04-09T05:49:20;43.50;;;30.60;;
13238;SDS011;6686;51.292;4.166;2023-04-09T05:52:07;46.87;;;32.07;;
13238;SDS011;6686;51.292;4.166;2023-04-09T05:54:53;44.27;;;30.40;;
13238;SDS011;6686;51.292;4.166;2023-04-09T05:57:39;46.47;;;31.23;;
13238;SDS011;6686;51.292;4.166;2023-04-09T06:00:24;43.27;;;30.30;;
13238;SDS011;6686;51.292;4.166;2023-04-09T06:03:10;42.47;;;30.40;;
13238;SDS011;6686;51.292;4.166;2023-04-09T06:05:56;47.83;;;32.03;;
13238;SDS011;6686;51.292;4.166;2023-04-09T06:08:42;44.93;;;30.63;;
13238;SDS011;6686;51.292;4.166;2023-04-09T06:11:28;45.13;;;30.17;;
13238;SDS011;6686;51.292;4.166;2023-04-09T06:14:15;44.40;;;29.87;;
13238;SDS011;6686;51.292;4.166;2023-04-09T06:17:01;40.93;;;28.77;;
13238;SDS011;6686;51.292;4.166;2023-04-09T06:19:47;48.47;;;30.43;;
13238;SDS011;6686;51.292;4.166;2023-04-09T06:22:33;45.77;;;31.57;;
13238;SDS011;6686;51.292;4.166;2023-04-09T06:25:20;45.90;;;31.13;;
13238;SDS011;6686;51.292;4.166;2023-04-09T06:28:06;43.60;;;29.80;;
13238;SDS011;6686;51.292;4.166;2023-04-09T06:30:52;44.73;;;30.33;;
13238;SDS011;6686;51.292;4.166;2023-04-09T06:33:38;43.07;;;29.33;;
13238;SDS011;6686;51.292;4.166;2023-04-09T06:36:24;45.87;;;31.90;;
13238;SDS011;6686;51.292;4.166;2023-04-09T06:39:10;44.53;;;30.00;;
13238;SDS011;6686;51.292;4.166;2023-04-09T06:41:56;42.37;;;29.50;;
13238;SDS011;6686;51.292;4.166;2023-04-09T06:44:41;41.30;;;27.73;;
13238;SDS011;6686;51.292;4.166;2023-04-09T06:47:27;43.63;;;29.37;;
13238;SDS011;6686;51.292;4.166;2023-04-09T06:50:13;43.70;;;29.73;;
13238;SDS011;6686;51.292;4.166;2023-04-09T06:52:59;45.93;;;30.40;;
13238;SDS011;6686;51.292;4.166;2023-04-09T06:55:44;42.97;;;30.13;;
13238;SDS011;6686;51.292;4.166;2023-04-09T06:58:31;44.63;;;29.90;;
13238;SDS011;6686;51.292;4.166;2023-04-09T07:01:17;44.43;;;29.63;;
13238;SDS011;6686;51.292;4.166;2023-04-09T07:04:02;44.30;;;30.47;;
13238;SDS011;6686;51.292;4.166;2023-04-09T07:06:48;43.47;;;28.80;;
13238;SDS011;6686;51.292;4.166;2023-04-09T07:09:34;46.13;;;30.13;;
13238;SDS011;6686;51.292;4.166;2023-04-09T07:12:30;48.23;;;32.90;;
13238;SDS011;6686;51.292;4.166;2023-04-09T07:15:12;45.17;;;28.57;;
13238;SDS011;6686;51.292;4.166;2023-04-09T07:17:58;46.40;;;30.70;;
13238;SDS011;6686;51.292;4.166;2023-04-09T07:20:43;44.53;;;29.97;;
13238;SDS011;6686;51.292;4.166;2023-04-09T07:23:29;45.53;;;35.90;;
13238;SDS011;6686;51.292;4.166;2023-04-09T07:26:15;46.83;;;31.87;;
13238;SDS011;6686;51.292;4.166;2023-04-09T07:29:01;50.10;;;30.67;;
13238;SDS011;6686;51.292;4.166;2023-04-09T07:31:47;48.10;;;34.07;;
13238;SDS011;6686;51.292;4.166;2023-04-09T07:34:33;46.37;;;32.77;;
13238;SDS011;6686;51.292;4.166;2023-04-09T07:37:19;50.55;;;39.22;;
13238;SDS011;6686;51.292;4.166;2023-04-09T07:40:05;49.53;;;35.27;;
13238;SDS011;6686;51.292;4.166;2023-04-09T07:42:51;46.33;;;34.17;;
13238;SDS011;6686;51.292;4.166;2023-04-09T07:45:37;47.97;;;32.40;;
13238;SDS011;6686;51.292;4.166;2023-04-09T07:48:23;45.83;;;32.37;;
13238;SDS011;6686;51.292;4.166;2023-04-09T07:51:09;44.40;;;33.30;;
13238;SDS011;6686;51.292;4.166;2023-04-09T07:53:55;41.13;;;31.13;;
13238;SDS011;6686;51.292;4.166;2023-04-09T07:56:41;42.27;;;31.93;;
13238;SDS011;6686;51.292;4.166;2023-04-09T07:59:27;45.77;;;31.73;;
13238;SDS011;6686;51.292;4.166;2023-04-09T08:02:13;40.17;;;29.20;;
13238;SDS011;6686;51.292;4.166;2023-04-09T08:04:58;43.80;;;33.95;;
13238;SDS011;6686;51.292;4.166;2023-04-09T08:07:44;43.67;;;34.28;;
13238;SDS011;6686;51.292;4.166;2023-04-09T08:10:30;38.87;;;29.67;;
13238;SDS011;6686;51.292;4.166;2023-04-09T08:13:16;37.27;;;29.07;;
13238;SDS011;6686;51.292;4.166;2023-04-09T08:16:02;38.83;;;29.37;;
13238;SDS011;6686;51.292;4.166;2023-04-09T08:18:48;41.58;;;33.97;;
13238;SDS011;6686;51.292;4.166;2023-04-09T08:21:36;40.87;;;34.53;;
13238;SDS011;6686;51.292;4.166;2023-04-09T08:24:22;41.50;;;32.30;;
13238;SDS011;6686;51.292;4.166;2023-04-09T08:27:08;40.03;;;34.08;;
13238;SDS011;6686;51.292;4.166;2023-04-09T08:29:54;41.37;;;32.47;;
13238;SDS011;6686;51.292;4.166;2023-04-09T08:32:40;40.70;;;31.70;;
13238;SDS011;6686;51.292;4.166;2023-04-09T08:35:26;38.90;;;31.73;;
13238;SDS011;6686;51.292;4.166;2023-04-09T08:38:12;40.10;;;30.87;;
13238;SDS011;6686;51.292;4.166;2023-04-09T08:40:58;41.60;;;31.53;;
13238;SDS011;6686;51.292;4.166;2023-04-09T08:43:45;38.07;;;29.67;;
13238;SDS011;6686;51.292;4.166;2023-04-09T08:46:29;40.70;;;31.63;;
13238;SDS011;6686;51.292;4.166;2023-04-09T08:49:16;41.25;;;36.35;;
13238;SDS011;6686;51.292;4.166;2023-04-09T08:52:01;39.83;;;31.70;;
13238;SDS011;6686;51.292;4.166;2023-04-09T08:54:48;40.93;;;31.40;;
13238;SDS011;6686;51.292;4.166;2023-04-09T08:57:37;39.73;;;31.73;;
13238;SDS011;6686;51.292;4.166;2023-04-09T09:00:25;38.33;;;31.07;;
13238;SDS011;6686;51.292;4.166;2023-04-09T09:03:11;42.93;;;33.40;;
13238;SDS011;6686;51.292;4.166;2023-04-09T09:05:59;41.37;;;32.30;;
13238;SDS011;6686;51.292;4.166;2023-04-09T09:08:48;42.43;;;31.90;;
13238;SDS011;6686;51.292;4.166;2023-04-09T09:11:38;41.57;;;29.93;;
13238;SDS011;6686;51.292;4.166;2023-04-09T09:14:23;39.10;;;30.33;;
13238;SDS011;6686;51.292;4.166;2023-04-09T09:17:09;40.37;;;30.70;;
13238;SDS011;6686;51.292;4.166;2023-04-09T09:19:56;40.03;;;30.77;;
13238;SDS011;6686;51.292;4.166;2023-04-09T09:22:48;41.70;;;29.87;;
13238;SDS011;6686;51.292;4.166;2023-04-09T09:25:37;40.00;;;33.95;;
13238;SDS011;6686;51.292;4.166;2023-04-09T09:28:26;42.63;;;31.77;;
13238;SDS011;6686;51.292;4.166;2023-04-09T09:31:11;38.03;;;29.57;;
13238;SDS011;6686;51.292;4.166;2023-04-09T09:33:57;36.87;;;28.90;;
13238;SDS011;6686;51.292;4.166;2023-04-09T09:36:44;39.07;;;29.77;;
13238;SDS011;6686;51.292;4.166;2023-04-09T09:39:41;37.70;;;29.20;;
13238;SDS011;6686;51.292;4.166;2023-04-09T09:42:27;38.77;;;29.57;;
13238;SDS011;6686;51.292;4.166;2023-04-09T09:45:16;40.70;;;29.27;;
13238;SDS011;6686;51.292;4.166;2023-04-09T09:48:09;39.27;;;29.53;;
13238;SDS011;6686;51.292;4.166;2023-04-09T09:50:49;39.63;;;30.03;;
13238;SDS011;6686;51.292;4.166;2023-04-09T09:53:40;38.37;;;29.40;;
13238;SDS011;6686;51.292;4.166;2023-04-09T09:56:22;37.07;;;28.67;;
13238;SDS011;6686;51.292;4.166;2023-04-09T09:59:29;38.90;;;31.80;;
13238;SDS011;6686;51.292;4.166;2023-04-09T10:02:06;36.70;;;28.60;;
13238;SDS011;6686;51.292;4.166;2023-04-09T10:04:50;33.20;;;26.00;;
13238;SDS011;6686;51.292;4.166;2023-04-09T10:07:36;35.80;;;27.90;;
13238;SDS011;6686;51.292;4.166;2023-04-09T10:10:23;34.23;;;28.37;;
13238;SDS011;6686;51.292;4.166;2023-04-09T10:13:08;38.27;;;27.77;;
13238;SDS011;6686;51.292;4.166;2023-04-09T10:15:54;38.10;;;28.17;;
13238;SDS011;6686;51.292;4.166;2023-04-09T10:18:39;36.23;;;27.87;;
13238;SDS011;6686;51.292;4.166;2023-04-09T10:21:36;37.17;;;27.47;;
13238;SDS011;6686;51.292;4.166;2023-04-09T10:24:21;37.30;;;28.43;;
13238;SDS011;6686;51.292;4.166;2023-04-09T10:27:11;39.20;;;32.03;;
13238;SDS011;6686;51.292;4.166;2023-04-09T10:29:56;40.20;;;28.57;;
13238;SDS011;6686;51.292;4.166;2023-04-09T10:32:42;35.77;;;28.50;;
13238;SDS011;6686;51.292;4.166;2023-04-09T10:35:28;36.17;;;26.80;;
13238;SDS011;6686;51.292;4.166;2023-04-09T10:38:15;37.60;;;27.27;;
13238;SDS011;6686;51.292;4.166;2023-04-09T10:41:08;37.63;;;26.80;;
13238;SDS011;6686;51.292;4.166;2023-04-09T10:43:56;35.77;;;26.47;;
13238;SDS011;6686;51.292;4.166;2023-04-09T10:46:42;34.93;;;25.90;;
13238;SDS011;6686;51.292;4.166;2023-04-09T10:49:34;34.97;;;26.57;;
13238;SDS011;6686;51.292;4.166;2023-04-09T10:52:14;34.23;;;25.53;;
13238;SDS011;6686;51.292;4.166;2023-04-09T10:55:00;31.60;;;24.90;;
13238;SDS011;6686;51.292;4.166;2023-04-09T10:57:46;33.67;;;24.07;;
13238;SDS011;6686;51.292;4.166;2023-04-09T11:00:45;30.77;;;22.30;;
13238;SDS011;6686;51.292;4.166;2023-04-09T11:03:27;33.73;;;23.13;;
13238;SDS011;6686;51.292;4.166;2023-04-09T11:06:13;29.70;;;23.40;;
13238;SDS011;6686;51.292;4.166;2023-04-09T11:09:00;31.37;;;24.17;;
13238;SDS011;6686;51.292;4.166;2023-04-09T11:11:50;35.03;;;24.70;;
13238;SDS011;6686;51.292;4.166;2023-04-09T11:14:32;28.33;;;21.67;;
13238;SDS011;6686;51.292;4.166;2023-04-09T11:17:17;27.40;;;21.33;;
13238;SDS011;6686;51.292;4.166;2023-04-09T11:20:03;26.10;;;21.07;;
13238;SDS011;6686;51.292;4.166;2023-04-09T11:22:49;28.90;;;22.10;;
13238;SDS011;6686;51.292;4.166;2023-04-09T11:25:34;30.10;;;21.90;;
13238;SDS011;6686;51.292;4.166;2023-04-09T11:28:21;27.80;;;21.77;;
13238;SDS011;6686;51.292;4.166;2023-04-09T11:31:06;27.87;;;20.17;;
13238;SDS011;6686;51.292;4.166;2023-04-09T11:33:52;24.47;;;19.50;;
13238;SDS011;6686;51.292;4.166;2023-04-09T11:36:38;30.70;;;21.80;;
13238;SDS011;6686;51.292;4.166;2023-04-09T11:39:23;26.60;;;21.07;;
13238;SDS011;6686;51.292;4.166;2023-04-09T11:42:13;27.13;;;19.67;;
13238;SDS011;6686;51.292;4.166;2023-04-09T11:44:58;22.90;;;18.07;;
13238;SDS011;6686;51.292;4.166;2023-04-09T11:47:44;24.73;;;20.43;;
13238;SDS011;6686;51.292;4.166;2023-04-09T11:50:30;29.73;;;20.83;;
13238;SDS011;6686;51.292;4.166;2023-04-09T11:53:16;26.77;;;22.90;;
13238;SDS011;6686;51.292;4.166;2023-04-09T11:56:02;26.58;;;22.70;;
13238;SDS011;6686;51.292;4.166;2023-04-09T11:58:49;27.27;;;21.67;;
13238;SDS011;6686;51.292;4.166;2023-04-09T12:01:34;25.33;;;19.67;;
13238;SDS011;6686;51.292;4.166;2023-04-09T12:04:20;25.03;;;19.40;;
13238;SDS011;6686;51.292;4.166;2023-04-09T12:07:09;24.87;;;18.17;;
13238;SDS011;6686;51.292;4.166;2023-04-09T12:09:55;22.73;;;17.83;;
13238;SDS011;6686;51.292;4.166;2023-04-09T12:12:45;23.37;;;19.67;;
13238;SDS011;6686;51.292;4.166;2023-04-09T12:15:31;25.30;;;20.85;;
13238;SDS011;6686;51.292;4.166;2023-04-09T12:18:15;21.60;;;19.08;;
13238;SDS011;6686;51.292;4.166;2023-04-09T12:21:01;19.97;;;16.20;;
13238;SDS011;6686;51.292;4.166;2023-04-09T12:23:47;20.97;;;17.13;;
13238;SDS011;6686;51.292;4.166;2023-04-09T12:26:33;23.20;;;17.43;;
13238;SDS011;6686;51.292;4.166;2023-04-09T12:29:19;22.87;;;17.83;;
13238;SDS011;6686;51.292;4.166;2023-04-09T12:32:06;20.83;;;17.37;;
13238;SDS011;6686;51.292;4.166;2023-04-09T12:34:52;20.10;;;16.70;;
13238;SDS011;6686;51.292;4.166;2023-04-09T12:37:38;21.63;;;19.33;;
13238;SDS011;6686;51.292;4.166;2023-04-09T12:40:23;20.00;;;16.43;;
13238;SDS011;6686;51.292;4.166;2023-04-09T12:43:09;21.23;;;16.67;;
13238;SDS011;6686;51.292;4.166;2023-04-09T12:45:55;21.50;;;17.17;;
13238;SDS011;6686;51.292;4.166;2023-04-09T12:48:41;24.17;;;17.90;;
13238;SDS011;6686;51.292;4.166;2023-04-09T12:51:26;21.80;;;17.03;;
13238;SDS011;6686;51.292;4.166;2023-04-09T12:54:12;20.10;;;16.23;;
13238;SDS011;6686;51.292;4.166;2023-04-09T12:56:58;19.40;;;15.03;;
13238;SDS011;6686;51.292;4.166;2023-04-09T12:59:44;19.03;;;15.30;;
13238;SDS011;6686;51.292;4.166;2023-04-09T13:02:29;23.47;;;18.30;;
13238;SDS011;6686;51.292;4.166;2023-04-09T13:05:15;20.73;;;16.57;;
13238;SDS011;6686;51.292;4.166;2023-04-09T13:08:01;18.43;;;15.70;;
13238;SDS011;6686;51.292;4.166;2023-04-09T13:10:47;18.83;;;16.07;;
13238;SDS011;6686;51.292;4.166;2023-04-09T13:13:32;16.87;;;14.77;;
13238;SDS011;6686;51.292;4.166;2023-04-09T13:16:18;18.97;;;15.10;;
13238;SDS011;6686;51.292;4.166;2023-04-09T13:19:05;20.30;;;14.63;;
13238;SDS011;6686;51.292;4.166;2023-04-09T13:21:50;17.97;;;14.57;;
13238;SDS011;6686;51.292;4.166;2023-04-09T13:24:37;18.93;;;15.37;;
13238;SDS011;6686;51.292;4.166;2023-04-09T13:27:22;18.05;;;15.35;;
13238;SDS011;6686;51.292;4.166;2023-04-09T13:30:08;21.17;;;14.93;;
13238;SDS011;6686;51.292;4.166;2023-04-09T13:32:54;19.13;;;14.97;;
13238;SDS011;6686;51.292;4.166;2023-04-09T13:35:40;18.20;;;15.07;;
13238;SDS011;6686;51.292;4.166;2023-04-09T13:38:26;16.80;;;13.90;;
13238;SDS011;6686;51.292;4.166;2023-04-09T13:41:15;16.03;;;12.33;;
13238;SDS011;6686;51.292;4.166;2023-04-09T13:44:01;17.03;;;14.67;;
13238;SDS011;6686;51.292;4.166;2023-04-09T13:46:46;16.13;;;13.10;;
13238;SDS011;6686;51.292;4.166;2023-04-09T13:49:32;19.53;;;14.70;;
13238;SDS011;6686;51.292;4.166;2023-04-09T13:52:18;16.40;;;12.87;;
13238;SDS011;6686;51.292;4.166;2023-04-09T13:55:04;18.00;;;15.60;;
13238;SDS011;6686;51.292;4.166;2023-04-09T13:57:50;17.73;;;14.63;;
13238;SDS011;6686;51.292;4.166;2023-04-09T14:00:36;19.87;;;16.73;;
13238;SDS011;6686;51.292;4.166;2023-04-09T14:03:22;22.10;;;15.33;;
13238;SDS011;6686;51.292;4.166;2023-04-09T14:06:08;18.43;;;14.97;;
13238;SDS011;6686;51.292;4.166;2023-04-09T14:08:54;17.33;;;14.73;;
13238;SDS011;6686;51.292;4.166;2023-04-09T14:11:40;20.12;;;18.02;;
13238;SDS011;6686;51.292;4.166;2023-04-09T14:14:25;20.00;;;15.77;;
13238;SDS011;6686;51.292;4.166;2023-04-09T14:17:11;18.47;;;15.67;;
13238;SDS011;6686;51.292;4.166;2023-04-09T14:19:57;18.80;;;15.37;;
13238;SDS011;6686;51.292;4.166;2023-04-09T14:22:43;20.63;;;16.50;;
13238;SDS011;6686;51.292;4.166;2023-04-09T14:25:29;19.53;;;15.70;;
13238;SDS011;6686;51.292;4.166;2023-04-09T14:28:15;18.90;;;15.13;;
13238;SDS011;6686;51.292;4.166;2023-04-09T14:31:01;19.93;;;16.87;;
13238;SDS011;6686;51.292;4.166;2023-04-09T14:33:47;18.50;;;16.20;;
13238;SDS011;6686;51.292;4.166;2023-04-09T14:36:33;21.33;;;16.60;;
13238;SDS011;6686;51.292;4.166;2023-04-09T14:39:19;20.03;;;16.47;;
13238;SDS011;6686;51.292;4.166;2023-04-09T14:42:05;20.87;;;18.13;;
13238;SDS011;6686;51.292;4.166;2023-04-09T14:44:50;19.13;;;16.20;;
13238;SDS011;6686;51.292;4.166;2023-04-09T14:47:36;23.00;;;18.87;;
13238;SDS011;6686;51.292;4.166;2023-04-09T14:50:23;19.20;;;17.07;;
13238;SDS011;6686;51.292;4.166;2023-04-09T14:53:08;21.43;;;16.37;;
13238;SDS011;6686;51.292;4.166;2023-04-09T14:55:54;19.77;;;16.60;;
13238;SDS011;6686;51.292;4.166;2023-04-09T14:58:40;20.17;;;16.37;;
13238;SDS011;6686;51.292;4.166;2023-04-09T15:01:26;19.10;;;16.77;;
13238;SDS011;6686;51.292;4.166;2023-04-09T15:04:12;17.97;;;15.50;;
13238;SDS011;6686;51.292;4.166;2023-04-09T15:06:58;19.07;;;15.23;;
13238;SDS011;6686;51.292;4.166;2023-04-09T15:09:43;19.23;;;14.57;;
13238;SDS011;6686;51.292;4.166;2023-04-09T15:12:30;17.77;;;14.97;;
13238;SDS011;6686;51.292;4.166;2023-04-09T15:15:16;19.73;;;15.20;;
13238;SDS011;6686;51.292;4.166;2023-04-09T15:18:02;15.47;;;12.87;;
13238;SDS011;6686;51.292;4.166;2023-04-09T15:20:47;15.80;;;13.57;;
13238;SDS011;6686;51.292;4.166;2023-04-09T15:23:33;17.20;;;14.30;;
13238;SDS011;6686;51.292;4.166;2023-04-09T15:26:23;18.43;;;15.73;;
13238;SDS011;6686;51.292;4.166;2023-04-09T15:29:06;16.52;;;14.10;;
13238;SDS011;6686;51.292;4.166;2023-04-09T15:31:52;16.07;;;13.27;;
13238;SDS011;6686;51.292;4.166;2023-04-09T15:34:38;13.27;;;11.20;;
13238;SDS011;6686;51.292;4.166;2023-04-09T15:37:23;14.20;;;12.68;;
13238;SDS011;6686;51.292;4.166;2023-04-09T15:40:09;15.17;;;11.53;;
13238;SDS011;6686;51.292;4.166;2023-04-09T15:42:55;13.73;;;11.20;;
13238;SDS011;6686;51.292;4.166;2023-04-09T15:45:41;12.73;;;11.13;;
13238;SDS011;6686;51.292;4.166;2023-04-09T15:48:27;12.20;;;10.77;;
13238;SDS011;6686;51.292;4.166;2023-04-09T15:51:13;14.13;;;11.40;;
13238;SDS011;6686;51.292;4.166;2023-04-09T15:53:59;12.00;;;9.93;;
13238;SDS011;6686;51.292;4.166;2023-04-09T15:56:45;11.77;;;9.63;;
13238;SDS011;6686;51.292;4.166;2023-04-09T15:59:31;12.10;;;10.47;;
13238;SDS011;6686;51.292;4.166;2023-04-09T16:02:17;13.90;;;11.00;;
13238;SDS011;6686;51.292;4.166;2023-04-09T16:05:04;13.50;;;11.30;;
13238;SDS011;6686;51.292;4.166;2023-04-09T16:07:49;12.53;;;11.23;;
13238;SDS011;6686;51.292;4.166;2023-04-09T16:10:36;11.77;;;10.20;;
13238;SDS011;6686;51.292;4.166;2023-04-09T16:13:21;12.80;;;10.43;;
13238;SDS011;6686;51.292;4.166;2023-04-09T16:16:07;11.40;;;9.93;;
13238;SDS011;6686;51.292;4.166;2023-04-09T16:18:53;10.50;;;9.40;;
13238;SDS011;6686;51.292;4.166;2023-04-09T16:21:39;12.80;;;9.77;;
13238;SDS011;6686;51.292;4.166;2023-04-09T16:24:25;11.43;;;10.20;;
13238;SDS011;6686;51.292;4.166;2023-04-09T16:27:11;12.00;;;9.37;;
13238;SDS011;6686;51.292;4.166;2023-04-09T16:29:57;12.43;;;9.53;;
13238;SDS011;6686;51.292;4.166;2023-04-09T16:32:43;13.17;;;10.20;;
13238;SDS011;6686;51.292;4.166;2023-04-09T16:35:28;12.57;;;10.13;;
13238;SDS011;6686;51.292;4.166;2023-04-09T16:38:14;10.57;;;9.50;;